createdAt,value
2023-01-25T00:01:22.819Z,76.21
2023-01-25T00:03:51.140Z,76.15
2023-01-25T00:06:19.203Z,76.05
2023-01-25T00:08:51.270Z,75.95
2023-01-25T00:11:20.494Z,76.18
2023-01-25T00:13:48.949Z,76.36
2023-01-25T00:16:17.587Z,76.33
2023-01-25T00:18:45.937Z,76.23
2023-01-25T00:21:18.027Z,76.23
2023-01-25T00:23:46.228Z,76.03
2023-01-25T00:26:14.764Z,76.11
2023-01-25T00:28:43.144Z,76.07
2023-01-25T00:31:16.242Z,76.20
2023-01-25T00:33:51.275Z,76.52
2023-01-25T00:36:39.508Z,76.38
2023-01-25T00:39:11.484Z,76.35
2023-01-25T00:41:40.539Z,76.20
2023-01-25T00:44:08.990Z,76.11
2023-01-25T00:46:39.514Z,76.28
2023-01-25T00:49:21.927Z,76.39
2023-01-25T00:51:50.658Z,76.42
2023-01-25T00:54:19.988Z,76.44
2023-01-25T00:56:48.130Z,76.37
2023-01-25T00:59:16.523Z,76.27
2023-01-25T01:01:44.826Z,76.03
2023-01-25T01:04:13.520Z,75.98
2023-01-25T01:06:42.923Z,76.18
2023-01-25T01:09:13.520Z,76.25
2023-01-25T01:11:41.637Z,76.32
2023-01-25T01:14:10.377Z,76.23
2023-01-25T01:16:38.813Z,76.04
2023-01-25T01:19:07.235Z,75.92
2023-01-25T01:21:35.521Z,75.76
2023-01-25T01:24:04.103Z,75.65
2023-01-25T01:26:32.554Z,75.65
2023-01-25T01:29:00.826Z,75.95
2023-01-25T01:31:29.407Z,76.13
2023-01-25T01:34:05.575Z,75.96
2023-01-25T01:36:34.675Z,75.88
2023-01-25T01:39:03.306Z,75.74
2023-01-25T01:41:31.837Z,75.65
2023-01-25T01:44:00.961Z,75.65
2023-01-25T01:46:40.491Z,75.68
2023-01-25T01:49:20.123Z,75.89
2023-01-25T01:51:50.044Z,76.00
2023-01-25T01:54:44.352Z,76.05
2023-01-25T01:57:16.743Z,75.89
2023-01-25T01:59:48.914Z,75.75
2023-01-25T02:02:17.386Z,75.80
2023-01-25T02:04:47.635Z,75.63
2023-01-25T10:12:23.138Z,52.51
2023-01-25T10:14:53.717Z,52.96
2023-01-25T10:17:58.220Z,53.70
2023-01-25T10:20:37.104Z,54.48
2023-01-25T10:23:43.874Z,55.60
2023-01-25T10:26:26.154Z,56.40
2023-01-25T10:28:59.913Z,57.20
2023-01-25T10:31:52.925Z,57.84
2023-01-25T10:34:20.975Z,58.65
2023-01-25T10:36:56.530Z,59.85
2023-01-25T10:39:23.562Z,60.41
2023-01-25T10:42:01.626Z,60.59
2023-01-25T10:44:36.013Z,61.14
2023-01-25T10:47:35.013Z,61.20
2023-01-25T10:50:03.051Z,61.75
2023-01-25T10:52:31.415Z,61.79
2023-01-25T10:55:18.131Z,62.05
2023-01-25T10:57:49.629Z,62.12
2023-01-25T11:00:39.984Z,61.87
2023-01-25T11:03:20.867Z,61.71
2023-01-25T11:05:55.386Z,61.81
2023-01-25T11:08:23.706Z,62.25
2023-01-25T11:10:51.419Z,62.23
2023-01-25T11:13:26.720Z,62.15
2023-01-25T11:15:54.970Z,62.40
2023-01-25T11:18:24.853Z,62.59
2023-01-25T11:21:29.674Z,62.80
2023-01-25T11:24:08.514Z,63.22
2023-01-25T11:26:37.297Z,63.53
2023-01-25T11:29:20.605Z,63.67
2023-01-25T11:31:49.513Z,63.59
2023-01-25T11:34:18.397Z,63.74
2023-01-25T11:37:07.064Z,63.57
2023-01-25T11:39:52.396Z,63.44
2023-01-25T11:42:31.959Z,63.68
2023-01-25T11:45:41.461Z,63.48
2023-01-25T11:48:14.409Z,63.76
2023-01-25T11:50:46.954Z,64.15
2023-01-25T11:53:35.994Z,64.12
2023-01-25T11:56:20.079Z,63.93
2023-01-25T11:58:56.300Z,63.69
2023-01-25T12:01:35.142Z,63.65
2023-01-25T12:04:26.627Z,63.93
2023-01-25T12:06:59.181Z,63.67
2023-01-25T12:09:44.672Z,64.16
2023-01-25T12:12:14.990Z,63.94
2023-01-25T12:14:50.833Z,64.32
2023-01-25T12:17:26.304Z,64.57
2023-01-25T12:20:00.211Z,64.39
2023-01-25T12:22:56.475Z,64.72
2023-01-25T12:25:46.199Z,64.87
2023-01-25T12:28:31.557Z,64.67
2023-01-25T12:31:10.358Z,64.49
2023-01-25T12:33:59.039Z,64.50
2023-01-25T12:36:33.871Z,64.51
2023-01-25T12:39:04.625Z,64.64
2023-01-25T12:42:01.945Z,64.55
2023-01-25T12:44:49.466Z,64.40
2023-01-25T12:47:37.041Z,64.91
2023-01-25T12:50:23.327Z,64.74
2023-01-25T12:52:54.011Z,64.92
2023-01-25T12:55:21.107Z,64.94
2023-01-25T12:58:02.979Z,65.03
2023-01-25T13:00:52.683Z,64.89
2023-01-25T13:03:44.320Z,64.38
2023-01-25T13:06:42.000Z,64.53
2023-01-25T13:09:36.379Z,64.21
2023-01-25T13:12:03.913Z,64.38
2023-01-25T13:14:36.442Z,64.43
2023-01-25T13:17:10.750Z,64.47
2023-01-25T13:19:41.821Z,64.73
2023-01-25T13:22:10.218Z,65.25
2023-01-25T13:25:02.388Z,65.06
2023-01-25T13:27:30.363Z,64.98
2023-01-25T13:30:03.276Z,64.62
2023-01-25T13:32:39.205Z,64.07
2023-01-25T13:35:27.146Z,63.95
2023-01-25T13:38:03.186Z,64.04
2023-01-25T13:40:37.235Z,63.92
2023-01-25T13:43:11.340Z,63.96
2023-01-25T13:45:38.486Z,64.07
2023-01-25T13:48:27.215Z,64.09
2023-01-25T13:51:04.815Z,64.48
2023-01-25T13:53:34.683Z,64.80
2023-01-25T13:56:01.871Z,64.71
2023-01-25T13:58:36.917Z,64.95
2023-01-25T14:01:07.623Z,65.00
2023-01-25T14:04:02.526Z,64.98
2023-01-25T14:06:35.607Z,64.80
2023-01-25T14:09:06.870Z,65.00
2023-01-25T14:11:35.775Z,64.78
2023-01-25T14:14:03.831Z,64.72
2023-01-25T14:16:31.486Z,65.09
2023-01-25T14:19:22.317Z,65.01
2023-01-25T14:21:49.488Z,65.16
2023-01-25T14:24:18.405Z,65.42
2023-01-25T14:26:46.853Z,65.68
2023-01-25T14:29:31.848Z,65.91
2023-01-25T14:32:00.334Z,66.09
2023-01-25T14:34:27.554Z,65.91
2023-01-25T14:37:30.114Z,66.09
2023-01-25T14:39:56.961Z,66.06
2023-01-25T14:42:24.052Z,66.01
2023-01-25T14:44:51.065Z,66.10
2023-01-25T14:47:26.023Z,66.11
2023-01-25T14:49:53.368Z,66.20
2023-01-25T14:52:20.453Z,66.81
2023-01-25T14:54:51.873Z,67.22
2023-01-25T14:57:37.747Z,67.44
2023-01-25T15:00:08.630Z,67.48
2023-01-25T15:02:40.593Z,67.46
2023-01-25T15:05:28.932Z,67.88
2023-01-25T18:26:22.065Z,82.10
2023-01-25T18:28:52.109Z,82.61
2023-01-25T18:31:20.497Z,82.68
2023-01-25T21:59:18.718Z,81.88
2023-01-25T22:01:47.252Z,81.59
2023-01-25T22:04:16.505Z,81.57
